Weather at U of C - Richmond Field Station Heliport [CLOSED]

Public forecast

Using degrees Fahrenheit for public forecast. Weather courtesy of forecast.io.

Closest aviation weather report (METAR) to U of C - Richmond Field Station Heliport

Closest report is Metropolitan Oakland International Airport, 12.8 nm (23.6 km) SSE.

2024/05/29 08:53 (retrieved 1 hour ago)

KOAK 290853Z 20004KT 10SM CLR 13/10 A3007 RMK AO2 SLP182 T01330100 58003

Closest aviation forecast (TAF) to U of C - Richmond Field Station Heliport

Closest forecast is Metropolitan Oakland International Airport, 12.8 nm (23.6 km) SSE.

2024/05/29 06:39 (retrieved 3 hours ago)

TAF KOAK 290536Z 2906/3012 26005KT P6SM SKC FM291900 27013KT P6SM SKC FM300400 27004KT P6SM SKC